Rapports des METAR proches

 

LFAQ - Bray, France
Distance from station: SSO 19km
Mise à jour: 29/01/2020 04:00
Clair
Clair
 Vent OSO
Vent: OSO 24 km/h
Température: 3°C
Température au vent: -2°C
Point de rosée: 2°C
Humidité: 93%
Baromètre: 1007 hPa
Résumé: Clair
Visibility: greater than 10 km
2020/01/29 03:00 LFAQ 290300Z AUTO 24013KT CAVOK 03/02 Q1007
LFQQ - Lille/Lesquin, France
Distance from station: NNE 53km
Mise à jour: 29/01/2020 04:00
Clair
Clair
 Vent SO
Vent: SO 13 km/h
Température: 3°C
Température au vent: -1°C
Point de rosée: 0°C
Humidité: 81%
Baromètre: 1005 hPa
Résumé: Clair
Visibility: greater than 10 km
2020/01/29 03:00 LFQQ 290300Z AUTO 22007KT CAVOK 03/00 Q1005 NOSIG
EBCV - Chievres Ab, Belgium
Distance from station: NE 88km
Mise à jour: 29/01/2020 03:55
Clair
Clair
 Vent SSO
Vent: SSO 20 km/h
Baromètre: 1005 hPa
Clouds: Clair
Visibility: 10 km
2020/01/29 02:55 EBCV 290255Z AUTO 21011KT 9999 NCD ///// Q1005 BLU
 
LFOB - Beauvais/Tille(A, France
Distance from station: SSO 88km
Mise à jour: 29/01/2020 04:00
Clair
Clair
 Vent OSO
Vent: OSO 20 km/h
Température: 4°C
Température au vent: -1°C
Point de rosée: 2°C
Humidité: 87%
Baromètre: 1008 hPa
Résumé: Clair
Visibility: greater than 10 km
2020/01/29 03:00 LFOB 290300Z AUTO 24011KT CAVOK 04/02 Q1008 TEMPO 4000 SHRA BKN013
LFAT - Le Touquet/P. Pl, France
Distance from station: ONO 93km
Mise à jour: 29/01/2020 04:00
Très nuageux
Très nuageux
 Vent ONO
Vent: ONO 24 km/h, Rafale: 44 km/h
Température: 7°C
Température au vent: 3°C
Point de rosée: 2°C
Humidité: 71%
Baromètre: 1006 hPa
Clouds: Très nuageux
Visibility: 10 km
Cloud details: Très nuageux 1006 m
Très nuageux 1189 m
Très nuageux 2256 m
2020/01/29 03:00 LFAT 290300Z AUTO 29013G24KT 240V320 9999 BKN033/// BKN039/// BKN074/// 07/02 Q1006
EBFN - Koksijde (bel-Af, Belgium
Distance from station: N 105km
Mise à jour: 29/01/2020 03:55
Très nuageux
Très nuageux
 Vent O
Vent: O 30 km/h
Température: 5°C
Température au vent: 0°C
Point de rosée: 1°C
Humidité: 76%
Baromètre: 1004 hPa
Clouds: Très nuageux
Visibility: 10 km
Cloud details: Très nuageux 5791 m
2020/01/29 02:55 EBFN 290255Z AUTO 26016KT 9999 BKN190/// 05/01 Q1004 BLU
 
EBOS - Oostende Airport, Belgium
Distance from station: N 119km
Mise à jour: 29/01/2020 03:50
Quelques nuages
Quelques nuages
 Vent O
Vent: O 33 km/h
Température: 5°C
Température au vent: 0°C
Point de rosée: 1°C
Humidité: 76%
Baromètre: 1004 hPa
Clouds: Quelques nuages
Visibility: 10 km
Cloud details: Quelques nuages 792 m
2020/01/29 02:50 EBOS 290250Z 28018KT 9999 FEW026 05/01 Q1004 NOSIG
EBCI - Charleroi/Gossel, Belgium
Distance from station: ENE 124km
Mise à jour: 29/01/2020 03:50
Très nuageux
Très nuageux
 Vent SO
Vent: SO 22 km/h
Température: 2°C
Température au vent: -3°C
Point de rosée: 0°C
Humidité: 87%
Baromètre: 1005 hPa
Clouds: Très nuageux
Visibility: 10 km
Cloud details: Très nuageux 549 m
2020/01/29 02:50 EBCI 290250Z 23012KT 9999 BKN018 02/00 Q1005 NOSIG
LFPG - Charles De Gaull, France
Distance from station: S 125km
Mise à jour: 29/01/2020 04:00
Pluie faible, Averses, Très nuageux
Pluie faible, Averses, Très nuageux
 Vent OSO
Vent: OSO 20 km/h
Température: 5°C
Température au vent: 1°C
Point de rosée: 2°C
Humidité: 81%
Baromètre: 1009 hPa
Résumé: Pluie faible, Averses
Clouds: Très nuageux
Visibility: 10 km
Cloud details: Partiellement nuageux 1219 m
Très nuageux 1829 m
2020/01/29 03:00 LFPG 290300Z 24011KT 9999 -SHRA SCT040 BKN060 05/02 Q1009 NOSIG
 
LFPT - Cormeilles Vexin, France
Distance from station: SSO 127km
Mise à jour: 29/01/2020 04:00
Très nuageux
Très nuageux
 Vent O
Vent: O 11 km/h
Température: 5°C
Température au vent: 2°C
Point de rosée: 2°C
Humidité: 81%
Baromètre: 1009 hPa
Clouds: Très nuageux
Visibility: 10 km
Cloud details: Quelques nuages 701 m
Partiellement nuageux 884 m
Très nuageux 1128 m
2020/01/29 03:00 LFPT 290300Z AUTO 27006KT 9999 FEW023 SCT029 BKN037 05/02 Q1009
LFPB - Paris/Le Bourget, France
Distance from station: S 132km
Mise à jour: 29/01/2020 04:00
Très nuageux
Très nuageux
 Vent OSO
Vent: OSO 9 km/h
Température: 5°C
Température au vent: 3°C
Point de rosée: 2°C
Humidité: 81%
Baromètre: 1010 hPa
Clouds: Très nuageux
Visibility: 10 km
Cloud details: Quelques nuages 1341 m
Très nuageux 1768 m
Très nuageux 4572 m
2020/01/29 03:00 LFPB 290300Z AUTO 24005KT 9999 FEW044 BKN058 BKN150 05/02 Q1010 NOSIG
EBFS - Florennes (bel-A, Belgium
Distance from station: E 133km
Mise à jour: 29/01/2020 03:55
Très nuageux
Très nuageux
 Vent SO
Vent: SO 22 km/h
Température: 1°C
Température au vent: -4°C
Point de rosée: 0°C
Humidité: 93%
Baromètre: 1006 hPa
Clouds: Très nuageux
Visibility: 10 km
Cloud details: Quelques nuages 610 m
Très nuageux 6706 m
2020/01/29 02:55 EBFS 290255Z AUTO 23012KT 9999 FEW020/// BKN220/// 01/00 Q1006 BLU
 
LFQA - Reims/Prunay, France
Distance from station: SE 143km
Mise à jour: 29/01/2020 04:00
Très nuageux
Très nuageux
 Vent O
Vent: O 11 km/h
Température: 4°C
Température au vent: 1°C
Point de rosée: 1°C
Humidité: 81%
Baromètre: 1009 hPa
Clouds: Très nuageux
Visibility: 10 km
Cloud details: Quelques nuages 1128 m
Très nuageux 6706 m
Très nuageux 7315 m
2020/01/29 03:00 LFQA 290300Z AUTO 27006KT 240V300 9999 FEW037 BKN220 BKN240 04/01 Q1009
LFOP - Rouen/Boos (aut), France
Distance from station: SO 144km
Mise à jour: 29/01/2020 04:00
Très nuageux
Très nuageux
 Vent OSO
Vent: OSO 13 km/h
Température: 3°C
Température au vent: -1°C
Point de rosée: 3°C
Humidité: 100%
Baromètre: 1009 hPa
Clouds: Très nuageux
Visibility: 10 km
Cloud details: Quelques nuages 823 m
Très nuageux 4267 m
2020/01/29 03:00 LFOP 290300Z AUTO 24007KT 9999 FEW027 BKN140 03/03 Q1009
EBBR - Brussels Nationa, Belgium
Distance from station: NE 148km
Mise à jour: 29/01/2020 03:50
Quelques nuages
Quelques nuages
 Vent OSO
Vent: OSO 24 km/h
Température: 3°C
Température au vent: -2°C
Point de rosée: 1°C
Humidité: 87%
Baromètre: 1004 hPa
Clouds: Quelques nuages
Visibility: 10 km
Cloud details: Quelques nuages 762 m
2020/01/29 02:50 EBBR 290250Z 24013KT 9999 FEW025 03/01 Q1004 NOSIG
 
EBBE - Beauvechain (baf, Belgium
Distance from station: ENE 156km
Mise à jour: 29/01/2020 03:55
Très nuageux
Très nuageux
 Vent OSO
Vent: OSO 20 km/h
Température: 3°C
Température au vent: -2°C
Point de rosée: 1°C
Humidité: 87%
Baromètre: 1005 hPa
Clouds: Très nuageux
Visibility: 10 km
Cloud details: Quelques nuages 518 m
Partiellement nuageux 732 m
Très nuageux 6401 m
2020/01/29 02:55 EBBE 290255Z AUTO 24011KT 9999 FEW017/// SCT024/// BKN210/// 03/01 Q1005 WHT
EHFS - Vlissingen, Netherlands
Distance from station: NNE 157km
Mise à jour: 29/01/2020 03:55
Couvert
Couvert
 Vent O
Vent: O 44 km/h
Température: 6°C
Température au vent: 1°C
Point de rosée: 2°C
Humidité: 76%
Baromètre: 1002 hPa
Clouds: Couvert
Visibility: 10 km
Cloud details: Quelques nuages 640 m
Très nuageux 732 m
Couvert 823 m
2020/01/29 02:55 EHFS 290255Z AUTO 27024KT 9999 FEW021/// BKN024/// OVC027/// 06/02 Q1002
LFPV - Villacoublay/Vel, France
Distance from station: SSO 157km
Mise à jour: 29/01/2020 04:00
Très nuageux
Très nuageux
 Vent OSO
Vent: OSO 15 km/h
Température: 5°C
Température au vent: 2°C
Point de rosée: 3°C
Humidité: 87%
Baromètre: 1010 hPa
Clouds: Très nuageux
Visibility: 10 km
Cloud details: Quelques nuages 610 m
Partiellement nuageux 1585 m
Très nuageux 3962 m
2020/01/29 03:00 LFPV 290300Z AUTO 25008KT 9999 FEW020 SCT052 BKN130 05/03 Q1010 NOSIG
 
EGMD - Lydd Airport, United Kingdom
Distance from station: NO 160km
Mise à jour: 29/01/2020 03:50
Clair
Clair
 Vent OSO
Vent: OSO 22 km/h
Température: 3°C
Température au vent: -2°C
Point de rosée: 1°C
Humidité: 87%
Baromètre: 1006 hPa
Clouds: Clair
Visibility: 10 km
2020/01/29 02:50 EGMD 290250Z AUTO 25012KT 9999 NCD 03/01 Q1006